Airport View

Enter ICAO identifier to see the current METAR for that AWOS.

KFNL for example

K79S 291440Z AUTO 08003KT 10SM 24/09 A3019

29 Jul 2014 14:45

Frequency: 122.8

Phone: 406-622-5976

Other Area AWOS: KGFA - KGTF - KHVR - KLWT

TAF KGFA 2911/3017 10009KT 9999 FEW160 QNH3008INS TEMPO 2919/2924 VCTS SCT080CB BECMG 3002/3003 20009KT 9999 SCT080 BKN120 QNH3004INS TX32/2922Z TN18/3012Z